sensor_id;sensor_type;location;lat;lon;timestamp;pressure;altitude;pressure_sealevel;temperature;humidity
7930;BME280;4010;42.698;23.124;2023-02-16T00:01:17;118349.16;;;-140.64;98.75
7930;BME280;4010;42.698;23.124;2023-02-16T00:03:44;118349.16;;;-140.64;98.23
7930;BME280;4010;42.698;23.124;2023-02-16T00:06:11;118349.16;;;-140.64;97.99
7930;BME280;4010;42.698;23.124;2023-02-16T00:08:42;118349.16;;;-140.64;98.31
7930;BME280;4010;42.698;23.124;2023-02-16T00:11:14;118349.16;;;-140.64;98.49
7930;BME280;4010;42.698;23.124;2023-02-16T00:14:00;118349.16;;;-140.64;98.32
7930;BME280;4010;42.698;23.124;2023-02-16T00:16:26;118349.16;;;-140.64;97.82
7930;BME280;4010;42.698;23.124;2023-02-16T00:18:53;118349.16;;;-140.64;97.31
7930;BME280;4010;42.698;23.124;2023-02-16T00:21:20;118349.16;;;-140.64;97.41
7930;BME280;4010;42.698;23.124;2023-02-16T00:23:49;118349.16;;;-140.64;97.16
7930;BME280;4010;42.698;23.124;2023-02-16T00:26:18;118349.16;;;-140.64;96.98
7930;BME280;4010;42.698;23.124;2023-02-16T00:28:48;118349.16;;;-140.64;97.00
7930;BME280;4010;42.698;23.124;2023-02-16T00:31:18;118349.16;;;-140.64;97.10
7930;BME280;4010;42.698;23.124;2023-02-16T00:33:46;118349.16;;;-140.64;96.78
7930;BME280;4010;42.698;23.124;2023-02-16T00:36:13;118349.16;;;-140.64;96.38
7930;BME280;4010;42.698;23.124;2023-02-16T00:38:40;118349.16;;;-140.64;96.27
7930;BME280;4010;42.698;23.124;2023-02-16T00:41:14;118349.16;;;-140.64;96.30
7930;BME280;4010;42.698;23.124;2023-02-16T00:44:04;118349.16;;;-140.64;96.70
7930;BME280;4010;42.698;23.124;2023-02-16T00:46:32;118349.16;;;-140.64;96.51
7930;BME280;4010;42.698;23.124;2023-02-16T00:48:59;118349.16;;;-140.64;96.85
7930;BME280;4010;42.698;23.124;2023-02-16T00:51:25;118349.16;;;-140.64;97.20
7930;BME280;4010;42.698;23.124;2023-02-16T00:53:52;118349.16;;;-140.64;97.74
7930;BME280;4010;42.698;23.124;2023-02-16T00:56:20;118349.16;;;-140.64;98.00
7930;BME280;4010;42.698;23.124;2023-02-16T00:58:49;118349.16;;;-140.64;98.36
7930;BME280;4010;42.698;23.124;2023-02-16T01:01:28;118349.16;;;-140.64;97.53
7930;BME280;4010;42.698;23.124;2023-02-16T01:03:58;118349.16;;;-140.64;97.70
7930;BME280;4010;42.698;23.124;2023-02-16T01:06:26;118349.16;;;-140.64;97.45
7930;BME280;4010;42.698;23.124;2023-02-16T01:09:13;118349.16;;;-140.64;97.77
7930;BME280;4010;42.698;23.124;2023-02-16T01:11:59;118349.16;;;-140.64;98.56
7930;BME280;4010;42.698;23.124;2023-02-16T01:14:26;118349.16;;;-140.64;98.65
7930;BME280;4010;42.698;23.124;2023-02-16T01:16:53;118349.16;;;-140.64;98.50
7930;BME280;4010;42.698;23.124;2023-02-16T01:19:19;118349.16;;;-140.64;98.80
7930;BME280;4010;42.698;23.124;2023-02-16T01:21:46;118349.16;;;-140.64;98.49
7930;BME280;4010;42.698;23.124;2023-02-16T01:24:13;118349.16;;;-140.64;98.65
7930;BME280;4010;42.698;23.124;2023-02-16T01:26:41;118349.16;;;-140.64;99.15
7930;BME280;4010;42.698;23.124;2023-02-16T01:29:13;118349.16;;;-140.64;99.06
7930;BME280;4010;42.698;23.124;2023-02-16T01:31:40;118349.16;;;-140.64;99.36
7930;BME280;4010;42.698;23.124;2023-02-16T01:34:07;118349.16;;;-140.64;100.00
7930;BME280;4010;42.698;23.124;2023-02-16T01:36:35;118349.16;;;-140.64;100.00
7930;BME280;4010;42.698;23.124;2023-02-16T01:39:03;118349.16;;;-140.64;99.96
7930;BME280;4010;42.698;23.124;2023-02-16T01:44:31;118349.16;;;-140.64;98.60
7930;BME280;4010;42.698;23.124;2023-02-16T01:47:03;118349.16;;;-140.64;98.25
7930;BME280;4010;42.698;23.124;2023-02-16T01:49:32;118349.16;;;-140.64;98.21
7930;BME280;4010;42.698;23.124;2023-02-16T01:52:06;118349.16;;;-140.64;97.92
7930;BME280;4010;42.698;23.124;2023-02-16T01:54:40;118349.16;;;-140.64;98.36
7930;BME280;4010;42.698;23.124;2023-02-16T01:57:20;118349.16;;;-140.64;98.06
7930;BME280;4010;42.698;23.124;2023-02-16T02:00:07;118349.16;;;-140.64;98.81
7930;BME280;4010;42.698;23.124;2023-02-16T02:02:39;118349.16;;;-140.64;98.70
7930;BME280;4010;42.698;23.124;2023-02-16T02:05:17;118349.16;;;-140.64;99.07
7930;BME280;4010;42.698;23.124;2023-02-16T02:08:15;118349.16;;;-140.64;98.60
7930;BME280;4010;42.698;23.124;2023-02-16T02:10:59;118349.16;;;-140.64;98.77
7930;BME280;4010;42.698;23.124;2023-02-16T02:13:30;118349.16;;;-140.64;98.46
7930;BME280;4010;42.698;23.124;2023-02-16T02:16:03;118349.16;;;-140.64;98.92
7930;BME280;4010;42.698;23.124;2023-02-16T02:18:30;118349.16;;;-140.64;99.09
7930;BME280;4010;42.698;23.124;2023-02-16T02:21:09;118349.16;;;-140.64;99.28
7930;BME280;4010;42.698;23.124;2023-02-16T02:24:11;118349.16;;;-140.64;99.31
7930;BME280;4010;42.698;23.124;2023-02-16T02:27:07;118349.16;;;-140.64;98.84
7930;BME280;4010;42.698;23.124;2023-02-16T02:29:53;118349.16;;;-140.64;98.94
7930;BME280;4010;42.698;23.124;2023-02-16T02:32:31;118349.16;;;-140.64;98.96
7930;BME280;4010;42.698;23.124;2023-02-16T02:35:10;118349.16;;;-140.64;99.00
7930;BME280;4010;42.698;23.124;2023-02-16T02:37:46;118349.16;;;-140.64;99.57
7930;BME280;4010;42.698;23.124;2023-02-16T02:40:22;118349.16;;;-140.64;99.41
7930;BME280;4010;42.698;23.124;2023-02-16T02:43:03;118349.16;;;-140.64;99.46
7930;BME280;4010;42.698;23.124;2023-02-16T02:45:35;118349.16;;;-140.64;99.72
7930;BME280;4010;42.698;23.124;2023-02-16T02:48:05;118349.16;;;-140.64;99.91
7930;BME280;4010;42.698;23.124;2023-02-16T02:50:37;118349.16;;;-140.64;100.00
7930;BME280;4010;42.698;23.124;2023-02-16T02:53:11;118349.16;;;-140.64;100.00
7930;BME280;4010;42.698;23.124;2023-02-16T02:55:41;118349.16;;;-140.64;100.00
7930;BME280;4010;42.698;23.124;2023-02-16T02:58:30;118349.16;;;-140.64;100.00
7930;BME280;4010;42.698;23.124;2023-02-16T03:01:17;118349.16;;;-140.64;100.00
7930;BME280;4010;42.698;23.124;2023-02-16T03:03:47;118349.16;;;-140.64;100.00
7930;BME280;4010;42.698;23.124;2023-02-16T03:06:18;118349.16;;;-140.64;100.00
7930;BME280;4010;42.698;23.124;2023-02-16T03:08:50;118349.16;;;-140.64;100.00
7930;BME280;4010;42.698;23.124;2023-02-16T03:11:21;118349.16;;;-140.64;100.00
7930;BME280;4010;42.698;23.124;2023-02-16T03:14:11;118349.16;;;-140.64;100.00
7930;BME280;4010;42.698;23.124;2023-02-16T03:16:41;118349.16;;;-140.64;100.00
7930;BME280;4010;42.698;23.124;2023-02-16T03:19:11;118349.16;;;-140.64;100.00
7930;BME280;4010;42.698;23.124;2023-02-16T03:21:57;118349.16;;;-140.64;100.00
7930;BME280;4010;42.698;23.124;2023-02-16T03:24:43;118349.16;;;-140.64;100.00
7930;BME280;4010;42.698;23.124;2023-02-16T03:27:30;118349.16;;;-140.64;100.00
7930;BME280;4010;42.698;23.124;2023-02-16T03:30:21;118349.16;;;-140.64;100.00
7930;BME280;4010;42.698;23.124;2023-02-16T03:32:49;118349.16;;;-140.64;100.00
7930;BME280;4010;42.698;23.124;2023-02-16T03:35:16;118349.16;;;-140.64;100.00
7930;BME280;4010;42.698;23.124;2023-02-16T03:37:44;118349.16;;;-140.64;100.00
7930;BME280;4010;42.698;23.124;2023-02-16T03:40:13;118349.16;;;-140.64;100.00
7930;BME280;4010;42.698;23.124;2023-02-16T03:42:59;118349.16;;;-140.64;100.00
7930;BME280;4010;42.698;23.124;2023-02-16T03:45:28;118349.16;;;-140.64;100.00
7930;BME280;4010;42.698;23.124;2023-02-16T03:47:55;118349.16;;;-140.64;100.00
7930;BME280;4010;42.698;23.124;2023-02-16T03:50:22;118349.16;;;-140.64;100.00
7930;BME280;4010;42.698;23.124;2023-02-16T03:52:51;118349.16;;;-140.64;100.00
7930;BME280;4010;42.698;23.124;2023-02-16T03:55:31;118349.16;;;-140.64;100.00
7930;BME280;4010;42.698;23.124;2023-02-16T03:57:57;118349.16;;;-140.64;100.00
7930;BME280;4010;42.698;23.124;2023-02-16T04:00:24;118349.16;;;-140.64;100.00
7930;BME280;4010;42.698;23.124;2023-02-16T04:02:52;118349.16;;;-140.64;100.00
7930;BME280;4010;42.698;23.124;2023-02-16T04:05:19;118349.16;;;-140.64;100.00
7930;BME280;4010;42.698;23.124;2023-02-16T04:07:45;118349.16;;;-140.64;100.00
7930;BME280;4010;42.698;23.124;2023-02-16T04:10:12;118349.16;;;-140.64;100.00
7930;BME280;4010;42.698;23.124;2023-02-16T04:12:39;118349.16;;;-140.64;100.00
7930;BME280;4010;42.698;23.124;2023-02-16T04:15:07;118349.16;;;-140.64;100.00
7930;BME280;4010;42.698;23.124;2023-02-16T04:17:34;118349.16;;;-140.64;100.00
7930;BME280;4010;42.698;23.124;2023-02-16T04:20:03;118349.16;;;-140.64;100.00
7930;BME280;4010;42.698;23.124;2023-02-16T04:22:30;118349.16;;;-140.64;100.00
7930;BME280;4010;42.698;23.124;2023-02-16T04:24:56;118349.16;;;-140.64;100.00
7930;BME280;4010;42.698;23.124;2023-02-16T04:27:23;118349.16;;;-140.64;100.00
7930;BME280;4010;42.698;23.124;2023-02-16T04:29:49;118349.16;;;-140.64;100.00
7930;BME280;4010;42.698;23.124;2023-02-16T04:32:16;118349.16;;;-140.64;100.00
7930;BME280;4010;42.698;23.124;2023-02-16T04:34:43;118349.16;;;-140.64;100.00
7930;BME280;4010;42.698;23.124;2023-02-16T04:37:11;118349.16;;;-140.64;100.00
7930;BME280;4010;42.698;23.124;2023-02-16T04:39:37;118349.16;;;-140.64;100.00
7930;BME280;4010;42.698;23.124;2023-02-16T04:42:04;118349.16;;;-140.64;100.00
7930;BME280;4010;42.698;23.124;2023-02-16T04:44:31;118349.16;;;-140.64;100.00
7930;BME280;4010;42.698;23.124;2023-02-16T04:46:58;118349.16;;;-140.64;100.00
7930;BME280;4010;42.698;23.124;2023-02-16T04:49:24;118349.16;;;-140.64;100.00
7930;BME280;4010;42.698;23.124;2023-02-16T04:51:51;118349.16;;;-140.64;100.00
7930;BME280;4010;42.698;23.124;2023-02-16T04:54:19;118349.16;;;-140.64;100.00
7930;BME280;4010;42.698;23.124;2023-02-16T04:56:47;118349.16;;;-140.64;100.00
7930;BME280;4010;42.698;23.124;2023-02-16T04:59:21;118349.16;;;-140.64;100.00
7930;BME280;4010;42.698;23.124;2023-02-16T05:01:48;118349.16;;;-140.64;100.00
7930;BME280;4010;42.698;23.124;2023-02-16T05:04:18;118349.16;;;-140.64;100.00
7930;BME280;4010;42.698;23.124;2023-02-16T05:06:45;118349.16;;;-140.64;100.00
7930;BME280;4010;42.698;23.124;2023-02-16T05:09:11;118349.16;;;-140.64;100.00
7930;BME280;4010;42.698;23.124;2023-02-16T05:11:39;118349.16;;;-140.64;100.00
7930;BME280;4010;42.698;23.124;2023-02-16T05:14:25;118349.16;;;-140.64;100.00
7930;BME280;4010;42.698;23.124;2023-02-16T05:17:07;118349.16;;;-140.64;100.00
7930;BME280;4010;42.698;23.124;2023-02-16T05:19:34;118349.16;;;-140.64;100.00
7930;BME280;4010;42.698;23.124;2023-02-16T05:22:01;118349.16;;;-140.64;100.00
7930;BME280;4010;42.698;23.124;2023-02-16T05:24:28;118349.16;;;-140.64;100.00
7930;BME280;4010;42.698;23.124;2023-02-16T05:26:56;118349.16;;;-140.64;100.00
7930;BME280;4010;42.698;23.124;2023-02-16T05:29:22;118349.16;;;-140.64;100.00
7930;BME280;4010;42.698;23.124;2023-02-16T05:31:49;118349.16;;;-140.64;100.00
7930;BME280;4010;42.698;23.124;2023-02-16T05:34:16;118349.16;;;-140.64;100.00
7930;BME280;4010;42.698;23.124;2023-02-16T05:36:43;118349.16;;;-140.64;100.00
7930;BME280;4010;42.698;23.124;2023-02-16T05:39:09;118349.16;;;-140.64;100.00
7930;BME280;4010;42.698;23.124;2023-02-16T05:41:36;118349.16;;;-140.64;100.00
7930;BME280;4010;42.698;23.124;2023-02-16T05:44:06;118349.16;;;-140.64;100.00
7930;BME280;4010;42.698;23.124;2023-02-16T05:46:35;118349.16;;;-140.64;100.00
7930;BME280;4010;42.698;23.124;2023-02-16T05:49:04;118349.16;;;-140.64;100.00
7930;BME280;4010;42.698;23.124;2023-02-16T05:51:31;118349.16;;;-140.64;100.00
7930;BME280;4010;42.698;23.124;2023-02-16T05:53:58;118349.16;;;-140.64;100.00
7930;BME280;4010;42.698;23.124;2023-02-16T05:56:26;118349.16;;;-140.64;100.00
7930;BME280;4010;42.698;23.124;2023-02-16T05:58:53;118349.16;;;-140.64;100.00
7930;BME280;4010;42.698;23.124;2023-02-16T06:01:22;118349.16;;;-140.64;100.00
7930;BME280;4010;42.698;23.124;2023-02-16T06:03:48;118349.16;;;-140.64;100.00
7930;BME280;4010;42.698;23.124;2023-02-16T06:06:15;118349.16;;;-140.64;100.00
7930;BME280;4010;42.698;23.124;2023-02-16T06:08:42;118349.16;;;-140.64;100.00
7930;BME280;4010;42.698;23.124;2023-02-16T06:11:09;118349.16;;;-140.64;100.00
7930;BME280;4010;42.698;23.124;2023-02-16T06:13:56;118349.16;;;-140.64;100.00
7930;BME280;4010;42.698;23.124;2023-02-16T06:16:26;118349.16;;;-140.64;100.00
7930;BME280;4010;42.698;23.124;2023-02-16T06:18:53;118349.16;;;-140.64;100.00
7930;BME280;4010;42.698;23.124;2023-02-16T06:21:20;118349.16;;;-140.64;100.00
7930;BME280;4010;42.698;23.124;2023-02-16T06:23:47;118349.16;;;-140.64;100.00
7930;BME280;4010;42.698;23.124;2023-02-16T06:26:15;118349.16;;;-140.64;100.00
7930;BME280;4010;42.698;23.124;2023-02-16T06:28:42;118349.16;;;-140.64;100.00
7930;BME280;4010;42.698;23.124;2023-02-16T06:31:08;118349.16;;;-140.64;100.00
7930;BME280;4010;42.698;23.124;2023-02-16T06:33:36;118349.16;;;-140.64;100.00
7930;BME280;4010;42.698;23.124;2023-02-16T06:36:04;118349.16;;;-140.64;100.00
7930;BME280;4010;42.698;23.124;2023-02-16T06:38:31;118349.16;;;-140.64;100.00
7930;BME280;4010;42.698;23.124;2023-02-16T06:40:58;118349.16;;;-140.64;100.00
7930;BME280;4010;42.698;23.124;2023-02-16T06:43:24;118349.16;;;-140.64;100.00
7930;BME280;4010;42.698;23.124;2023-02-16T06:45:51;118349.16;;;-140.64;100.00
7930;BME280;4010;42.698;23.124;2023-02-16T06:48:18;118349.16;;;-140.64;100.00
7930;BME280;4010;42.698;23.124;2023-02-16T06:50:46;118349.16;;;-140.64;100.00
7930;BME280;4010;42.698;23.124;2023-02-16T06:53:13;118349.16;;;-140.64;99.14
7930;BME280;4010;42.698;23.124;2023-02-16T06:55:39;118349.16;;;-140.64;98.77
7930;BME280;4010;42.698;23.124;2023-02-16T06:58:06;118349.16;;;-140.64;99.14
7930;BME280;4010;42.698;23.124;2023-02-16T07:00:33;118349.16;;;-140.64;98.87
7930;BME280;4010;42.698;23.124;2023-02-16T07:03:00;118349.16;;;-140.64;97.65
7930;BME280;4010;42.698;23.124;2023-02-16T07:05:27;118349.16;;;-140.64;97.33
7930;BME280;4010;42.698;23.124;2023-02-16T07:07:55;118349.16;;;-140.64;95.84
7930;BME280;4010;42.698;23.124;2023-02-16T07:10:21;118349.16;;;-140.64;94.45
7930;BME280;4010;42.698;23.124;2023-02-16T07:12:48;118349.16;;;-140.64;94.77
7930;BME280;4010;42.698;23.124;2023-02-16T07:15:15;118349.16;;;-140.64;94.40
7930;BME280;4010;42.698;23.124;2023-02-16T07:17:41;118349.16;;;-140.64;93.70
7930;BME280;4010;42.698;23.124;2023-02-16T07:20:09;118349.16;;;-140.64;93.36
7930;BME280;4010;42.698;23.124;2023-02-16T07:22:37;118349.16;;;-140.64;92.62
7930;BME280;4010;42.698;23.124;2023-02-16T07:25:06;118349.16;;;-140.64;91.05
7930;BME280;4010;42.698;23.124;2023-02-16T07:27:32;118349.16;;;-140.64;90.01
7930;BME280;4010;42.698;23.124;2023-02-16T07:29:59;118349.16;;;-140.64;88.54
7930;BME280;4010;42.698;23.124;2023-02-16T07:32:28;118349.16;;;-140.64;87.52
7930;BME280;4010;42.698;23.124;2023-02-16T07:34:55;118349.16;;;-140.64;86.35
7930;BME280;4010;42.698;23.124;2023-02-16T07:37:21;118349.16;;;-140.64;86.19
7930;BME280;4010;42.698;23.124;2023-02-16T07:39:48;118349.16;;;-140.64;85.25
7930;BME280;4010;42.698;23.124;2023-02-16T07:42:16;118349.16;;;-140.64;85.52
7930;BME280;4010;42.698;23.124;2023-02-16T07:44:43;118349.16;;;-140.64;84.51
7930;BME280;4010;42.698;23.124;2023-02-16T07:47:09;118349.16;;;-140.64;84.57
7930;BME280;4010;42.698;23.124;2023-02-16T07:49:37;118349.16;;;-140.64;83.11
7930;BME280;4010;42.698;23.124;2023-02-16T07:52:04;118349.16;;;-140.64;83.87
7930;BME280;4010;42.698;23.124;2023-02-16T07:54:32;118349.16;;;-140.64;82.58
7930;BME280;4010;42.698;23.124;2023-02-16T07:56:58;118349.16;;;-140.64;82.00
7930;BME280;4010;42.698;23.124;2023-02-16T07:59:26;118349.16;;;-140.64;81.32
7930;BME280;4010;42.698;23.124;2023-02-16T08:01:53;118349.16;;;-140.64;81.15
7930;BME280;4010;42.698;23.124;2023-02-16T08:04:20;118349.16;;;-140.64;81.09
7930;BME280;4010;42.698;23.124;2023-02-16T08:06:46;118349.16;;;-140.64;80.94
7930;BME280;4010;42.698;23.124;2023-02-16T08:09:13;118349.16;;;-140.64;80.76
7930;BME280;4010;42.698;23.124;2023-02-16T08:11:40;118349.16;;;-140.64;80.80
7930;BME280;4010;42.698;23.124;2023-02-16T08:14:07;118349.16;;;-140.64;80.46
7930;BME280;4010;42.698;23.124;2023-02-16T08:16:35;118349.16;;;-140.64;81.45
7930;BME280;4010;42.698;23.124;2023-02-16T08:19:02;118349.16;;;-140.64;81.21
7930;BME280;4010;42.698;23.124;2023-02-16T08:21:31;118349.16;;;-140.64;82.63
7930;BME280;4010;42.698;23.124;2023-02-16T08:23:59;118349.16;;;-140.64;81.64
7930;BME280;4010;42.698;23.124;2023-02-16T08:26:28;118349.16;;;-140.64;79.11
7930;BME280;4010;42.698;23.124;2023-02-16T08:28:56;118349.16;;;-140.64;79.86
7930;BME280;4010;42.698;23.124;2023-02-16T08:31:25;118349.16;;;-140.64;78.50
7930;BME280;4010;42.698;23.124;2023-02-16T08:33:54;118349.16;;;-140.64;77.91
7930;BME280;4010;42.698;23.124;2023-02-16T08:36:23;118349.16;;;-140.64;77.84
7930;BME280;4010;42.698;23.124;2023-02-16T08:38:52;118349.16;;;-140.64;78.20
7930;BME280;4010;42.698;23.124;2023-02-16T08:41:21;118349.16;;;-140.64;78.75
7930;BME280;4010;42.698;23.124;2023-02-16T08:43:49;118349.16;;;-140.64;78.32
7930;BME280;4010;42.698;23.124;2023-02-16T08:46:16;118349.16;;;-140.64;78.33
7930;BME280;4010;42.698;23.124;2023-02-16T08:48:43;118349.16;;;-140.64;79.60
7930;BME280;4010;42.698;23.124;2023-02-16T08:51:14;118349.16;;;-140.64;78.92
7930;BME280;4010;42.698;23.124;2023-02-16T08:53:42;118349.16;;;-140.64;79.08
7930;BME280;4010;42.698;23.124;2023-02-16T08:56:09;118349.16;;;-140.64;79.04
7930;BME280;4010;42.698;23.124;2023-02-16T08:58:36;118349.16;;;-140.64;78.46
7930;BME280;4010;42.698;23.124;2023-02-16T09:01:03;118349.16;;;-140.64;78.39
7930;BME280;4010;42.698;23.124;2023-02-16T09:03:32;118349.16;;;-140.64;78.11
7930;BME280;4010;42.698;23.124;2023-02-16T09:06:01;118349.16;;;-140.64;78.41
7930;BME280;4010;42.698;23.124;2023-02-16T09:08:29;118349.16;;;-140.64;77.69
7930;BME280;4010;42.698;23.124;2023-02-16T09:11:00;118349.16;;;-140.64;78.12
7930;BME280;4010;42.698;23.124;2023-02-16T09:13:27;118349.16;;;-140.64;77.03
7930;BME280;4010;42.698;23.124;2023-02-16T09:15:53;118349.16;;;-140.64;77.48
7930;BME280;4010;42.698;23.124;2023-02-16T09:18:20;118349.16;;;-140.64;76.66
7930;BME280;4010;42.698;23.124;2023-02-16T09:20:47;118349.16;;;-140.64;75.89
7930;BME280;4010;42.698;23.124;2023-02-16T09:23:14;118349.16;;;-140.64;75.07
7930;BME280;4010;42.698;23.124;2023-02-16T09:25:42;118349.16;;;-140.64;74.84
7930;BME280;4010;42.698;23.124;2023-02-16T09:28:09;118349.16;;;-140.64;75.49
7930;BME280;4010;42.698;23.124;2023-02-16T09:30:36;118349.16;;;-140.64;74.67
7930;BME280;4010;42.698;23.124;2023-02-16T09:33:04;118349.16;;;-140.64;74.81
7930;BME280;4010;42.698;23.124;2023-02-16T09:35:31;118349.16;;;-140.64;73.56
7930;BME280;4010;42.698;23.124;2023-02-16T09:37:57;118349.16;;;-140.64;73.16
7930;BME280;4010;42.698;23.124;2023-02-16T09:40:24;118349.16;;;-140.64;72.82
7930;BME280;4010;42.698;23.124;2023-02-16T09:43:02;118349.16;;;-140.64;72.82
7930;BME280;4010;42.698;23.124;2023-02-16T09:45:38;118349.16;;;-140.64;71.30
7930;BME280;4010;42.698;23.124;2023-02-16T09:48:11;118349.16;;;-140.64;71.11
7930;BME280;4010;42.698;23.124;2023-02-16T09:50:49;118349.16;;;-140.64;70.91
7930;BME280;4010;42.698;23.124;2023-02-16T09:53:21;118349.16;;;-140.64;70.74
7930;BME280;4010;42.698;23.124;2023-02-16T09:55:53;118349.16;;;-140.64;70.45
7930;BME280;4010;42.698;23.124;2023-02-16T09:58:28;118349.16;;;-140.64;70.33
7930;BME280;4010;42.698;23.124;2023-02-16T10:01:02;118349.16;;;-140.64;69.83
7930;BME280;4010;42.698;23.124;2023-02-16T10:03:47;118349.16;;;-140.64;69.41
7930;BME280;4010;42.698;23.124;2023-02-16T10:06:31;118349.16;;;-140.64;68.58
7930;BME280;4010;42.698;23.124;2023-02-16T10:09:03;118349.16;;;-140.64;68.00
7930;BME280;4010;42.698;23.124;2023-02-16T10:11:34;118349.16;;;-140.64;67.96
7930;BME280;4010;42.698;23.124;2023-02-16T10:14:14;118349.16;;;-140.64;67.29
7930;BME280;4010;42.698;23.124;2023-02-16T10:16:46;118349.16;;;-140.64;66.50
7930;BME280;4010;42.698;23.124;2023-02-16T10:19:19;118349.16;;;-140.64;67.25
7930;BME280;4010;42.698;23.124;2023-02-16T10:21:50;118349.16;;;-140.64;66.37
7930;BME280;4010;42.698;23.124;2023-02-16T10:24:18;118349.16;;;-140.64;65.91
7930;BME280;4010;42.698;23.124;2023-02-16T10:26:47;118349.16;;;-140.64;65.75
7930;BME280;4010;42.698;23.124;2023-02-16T10:29:19;118349.16;;;-140.64;66.13
7930;BME280;4010;42.698;23.124;2023-02-16T10:31:50;118349.16;;;-140.64;64.89
7930;BME280;4010;42.698;23.124;2023-02-16T10:34:34;118349.16;;;-140.64;64.29
7930;BME280;4010;42.698;23.124;2023-02-16T10:37:14;118349.16;;;-140.64;64.10
7930;BME280;4010;42.698;23.124;2023-02-16T10:39:49;118349.16;;;-140.64;63.26
7930;BME280;4010;42.698;23.124;2023-02-16T10:42:23;118349.16;;;-140.64;63.36
7930;BME280;4010;42.698;23.124;2023-02-16T10:44:58;118349.16;;;-140.64;62.56
7930;BME280;4010;42.698;23.124;2023-02-16T10:47:31;118349.16;;;-140.64;61.54
7930;BME280;4010;42.698;23.124;2023-02-16T10:49:59;118349.16;;;-140.64;61.39
7930;BME280;4010;42.698;23.124;2023-02-16T10:52:28;118349.16;;;-140.64;61.42
7930;BME280;4010;42.698;23.124;2023-02-16T10:54:58;118349.16;;;-140.64;60.61
7930;BME280;4010;42.698;23.124;2023-02-16T10:57:26;118349.16;;;-140.64;59.79
7930;BME280;4010;42.698;23.124;2023-02-16T10:59:55;118349.16;;;-140.64;60.51
7930;BME280;4010;42.698;23.124;2023-02-16T11:02:24;118349.16;;;-140.64;59.02
7930;BME280;4010;42.698;23.124;2023-02-16T11:04:53;118349.16;;;-140.64;58.54
7930;BME280;4010;42.698;23.124;2023-02-16T11:07:21;118349.16;;;-140.64;58.25
7930;BME280;4010;42.698;23.124;2023-02-16T11:09:51;118349.16;;;-140.64;57.82
7930;BME280;4010;42.698;23.124;2023-02-16T11:12:25;118349.16;;;-140.64;57.50
7930;BME280;4010;42.698;23.124;2023-02-16T11:14:56;118349.16;;;-140.64;57.21
7930;BME280;4010;42.698;23.124;2023-02-16T11:17:23;118349.16;;;-140.64;56.51
7930;BME280;4010;42.698;23.124;2023-02-16T11:19:53;118349.16;;;-140.64;55.66
7930;BME280;4010;42.698;23.124;2023-02-16T11:22:26;118349.16;;;-140.64;55.92
7930;BME280;4010;42.698;23.124;2023-02-16T11:24:53;118349.16;;;-140.64;55.37
7930;BME280;4010;42.698;23.124;2023-02-16T11:27:22;118349.16;;;-140.64;54.78
7930;BME280;4010;42.698;23.124;2023-02-16T11:29:50;118349.16;;;-140.64;54.83
7930;BME280;4010;42.698;23.124;2023-02-16T11:32:18;118349.16;;;-140.64;54.33
7930;BME280;4010;42.698;23.124;2023-02-16T11:34:48;118349.16;;;-140.64;53.31
7930;BME280;4010;42.698;23.124;2023-02-16T11:37:20;118349.16;;;-140.64;52.37
7930;BME280;4010;42.698;23.124;2023-02-16T11:39:52;118349.16;;;-140.64;52.37
7930;BME280;4010;42.698;23.124;2023-02-16T11:42:28;118349.16;;;-140.64;52.54
7930;BME280;4010;42.698;23.124;2023-02-16T11:44:58;118349.16;;;-140.64;52.57
7930;BME280;4010;42.698;23.124;2023-02-16T11:47:29;118349.16;;;-140.64;51.99
7930;BME280;4010;42.698;23.124;2023-02-16T11:50:12;118349.16;;;-140.64;52.41
7930;BME280;4010;42.698;23.124;2023-02-16T11:52:43;118349.16;;;-140.64;52.19
7930;BME280;4010;42.698;23.124;2023-02-16T11:55:19;118349.16;;;-140.64;50.85
7930;BME280;4010;42.698;23.124;2023-02-16T11:57:46;118349.16;;;-140.64;50.39
7930;BME280;4010;42.698;23.124;2023-02-16T12:00:15;118349.16;;;-140.64;49.60
7930;BME280;4010;42.698;23.124;2023-02-16T12:03:15;118349.16;;;-140.64;49.41
7930;BME280;4010;42.698;23.124;2023-02-16T12:06:04;118349.16;;;-140.64;49.28
7930;BME280;4010;42.698;23.124;2023-02-16T12:08:45;118349.16;;;-140.64;48.77
7930;BME280;4010;42.698;23.124;2023-02-16T12:11:20;118349.16;;;-140.64;48.00
7930;BME280;4010;42.698;23.124;2023-02-16T12:14:02;118349.16;;;-140.64;48.73
7930;BME280;4010;42.698;23.124;2023-02-16T12:16:35;118349.16;;;-140.64;47.31
7930;BME280;4010;42.698;23.124;2023-02-16T12:19:29;118349.16;;;-140.64;47.86
7930;BME280;4010;42.698;23.124;2023-02-16T12:22:03;118349.16;;;-140.64;47.66
7930;BME280;4010;42.698;23.124;2023-02-16T12:24:41;118349.16;;;-140.64;47.60
7930;BME280;4010;42.698;23.124;2023-02-16T12:27:16;118349.16;;;-140.64;46.67
7930;BME280;4010;42.698;23.124;2023-02-16T12:29:49;118349.16;;;-140.64;45.75
7930;BME280;4010;42.698;23.124;2023-02-16T12:32:29;118349.16;;;-140.64;44.62
7930;BME280;4010;42.698;23.124;2023-02-16T12:35:15;118349.16;;;-140.64;39.83
7930;BME280;4010;42.698;23.124;2023-02-16T12:37:45;118349.16;;;-140.64;39.79
7930;BME280;4010;42.698;23.124;2023-02-16T12:40:27;118349.16;;;-140.64;39.65
7930;BME280;4010;42.698;23.124;2023-02-16T12:43:06;118349.16;;;-140.64;40.34
7930;BME280;4010;42.698;23.124;2023-02-16T12:45:37;118349.16;;;-140.64;39.74
7930;BME280;4010;42.698;23.124;2023-02-16T12:48:16;118349.16;;;-140.64;38.28
7930;BME280;4010;42.698;23.124;2023-02-16T12:50:47;118349.16;;;-140.64;40.27
7930;BME280;4010;42.698;23.124;2023-02-16T12:53:19;118349.16;;;-140.64;38.60
7930;BME280;4010;42.698;23.124;2023-02-16T12:55:54;118349.16;;;-140.64;38.12
7930;BME280;4010;42.698;23.124;2023-02-16T12:58:24;118349.16;;;-140.64;38.40
7930;BME280;4010;42.698;23.124;2023-02-16T13:00:56;118349.16;;;-140.64;38.32